Time;durP1;ratioP1;P1;durP2;ratioP2;P2;SDS_P1;SDS_P2;PMS_P1;PMS_P2;Temp;Humidity;BMP_temperature;BMP_pressure;BME280_temperature;BME280_humidity;BME280_pressure;Samples;Min_cycle;Max_cycle;Signal;HPM_P1;HPM_P2
2024/04/11 00:00:06;;;;;;;0.50;0.50;;;;;;;7.58;65.35;98255.53;29395;244;63008;-86
2024/04/11 00:00:37;;;;;;;0.50;0.50;;;;;;;7.57;65.30;98256.59;29395;202;63001;-86
2024/04/11 00:01:10;;;;;;;0.50;0.50;;;;;;;7.57;65.40;98254.72;29394;215;64014;-85
2024/04/11 00:01:42;;;;;;;0.60;0.60;;;;;;;7.56;65.43;98260.38;29395;206;63005;-87
2024/04/11 00:02:13;;;;;;;0.50;0.50;;;;;;;7.56;65.52;98257.66;29395;198;63009;-87
2024/04/11 00:02:44;;;;;;;0.50;0.50;;;;;;;7.57;65.62;98257.44;29395;206;63005;-88
2024/04/11 00:03:17;;;;;;;0.60;0.60;;;;;;;7.58;65.51;98253.66;29395;225;63009;-86
2024/04/11 00:03:48;;;;;;;0.50;0.50;;;;;;;7.58;65.18;98244.75;29395;249;63005;-87
2024/04/11 00:04:19;;;;;;;0.50;0.50;;;;;;;7.57;65.26;98251.19;29395;208;63009;-86
2024/04/11 00:04:50;;;;;;;0.50;0.50;;;;;;;7.55;65.17;98256.84;29395;252;63005;-86
2024/04/11 00:05:21;;;;;;;0.50;0.50;;;;;;;7.54;65.19;98252.50;29395;221;63009;-86
2024/04/11 00:05:55;;;;;;;0.55;0.55;;;;;;;7.52;64.97;98251.91;29395;226;63004;-88
2024/04/11 00:06:26;;;;;;;0.50;0.50;;;;;;;7.52;64.96;98251.91;29394;203;64013;-87
2024/04/11 00:06:58;;;;;;;0.50;0.50;;;;;;;7.52;65.13;98253.81;29395;238;63004;-85
2024/04/11 00:07:30;;;;;;;0.50;0.50;;;;;;;7.52;65.01;98259.19;29395;310;63008;-86
2024/04/11 00:08:01;;;;;;;0.50;0.50;;;;;;;7.51;65.05;98254.84;29395;198;63004;-87
2024/04/11 00:08:32;;;;;;;0.50;0.50;;;;;;;7.51;65.01;98249.47;29395;206;63019;-86
2024/04/11 00:09:04;;;;;;;0.50;0.50;;;;;;;7.49;65.08;98248.87;29395;231;63005;-86
2024/04/11 00:09:35;;;;;;;0.50;0.50;;;;;;;7.49;65.13;98246.19;29395;291;63009;-86
2024/04/11 00:10:07;;;;;;;0.50;0.50;;;;;;;7.48;65.16;98241.84;29395;266;63005;-85
2024/04/11 00:10:39;;;;;;;0.50;0.50;;;;;;;7.47;65.17;98240.19;29395;203;63019;-86
2024/04/11 00:11:10;;;;;;;0.60;0.60;;;;;;;7.47;65.23;98245.59;29394;290;64009;-86
2024/04/11 00:11:42;;;;;;;0.60;0.60;;;;;;;7.47;65.34;98240.19;29395;234;63009;-87
2024/04/11 00:12:13;;;;;;;0.60;0.60;;;;;;;7.46;65.16;98243.94;29395;306;63005;-86
2024/04/11 00:12:44;;;;;;;0.60;0.60;;;;;;;7.47;65.39;98240.19;29395;215;63009;-86
2024/04/11 00:13:17;;;;;;;0.50;0.50;;;;;;;7.46;65.27;98238.56;29395;358;63004;-87
2024/04/11 00:13:49;;;;;;;0.50;0.50;;;;;;;7.46;65.25;98238.56;29395;210;63009;-86
2024/04/11 00:14:20;;;;;;;0.50;0.50;;;;;;;7.46;65.39;98243.94;29395;232;63004;-87
2024/04/11 00:14:51;;;;;;;0.60;0.60;;;;;;;7.44;65.26;98243.38;29395;231;63009;-85
2024/04/11 00:15:22;;;;;;;0.60;0.60;;;;;;;7.44;65.31;98241.50;29395;207;63004;-86
2024/04/11 00:15:56;;;;;;;0.50;0.50;;;;;;;7.44;65.38;98240.66;29394;211;64014;-85
2024/04/11 00:16:28;;;;;;;0.50;0.50;;;;;;;7.43;65.51;98239.84;29395;227;63005;-86
2024/04/11 00:16:59;;;;;;;0.60;0.60;;;;;;;7.43;65.44;98229.03;29394;237;64014;-86
2024/04/11 00:17:30;;;;;;;0.60;0.60;;;;;;;7.43;65.47;98239.03;29395;206;63012;-87
2024/04/11 00:18:02;;;;;;;0.50;0.50;;;;;;;7.43;65.54;98239.03;29395;204;63009;-87
2024/04/11 00:18:33;;;;;;;0.50;0.50;;;;;;;7.42;65.34;98232.81;29395;218;63005;-86
2024/04/11 00:19:04;;;;;;;0.50;0.50;;;;;;;7.44;65.52;98232.56;29395;220;63009;-86
2024/04/11 00:19:36;;;;;;;0.50;0.50;;;;;;;7.45;65.48;98236.91;29395;221;63009;-86
2024/04/11 00:20:08;;;;;;;0.50;0.50;;;;;;;7.46;65.20;98222.34;29395;306;63009;-86
2024/04/11 00:20:39;;;;;;;0.50;0.50;;;;;;;7.46;65.17;98227.75;29395;255;63004;-87
2024/04/11 00:21:11;;;;;;;0.50;0.50;;;;;;;7.46;65.26;98227.75;29395;293;63009;-87
2024/04/11 00:21:42;;;;;;;0.50;0.50;;;;;;;7.46;65.06;98223.16;29394;202;64008;-86
2024/04/11 00:22:13;;;;;;;0.60;0.60;;;;;;;7.47;65.07;98224.00;29394;230;64013;-85
2024/04/11 00:22:47;;;;;;;0.50;0.50;;;;;;;7.46;65.21;98223.16;29395;283;63004;-86
2024/04/11 00:23:18;;;;;;;0.50;0.50;;;;;;;7.50;65.38;98220.81;29395;260;63007;-86
2024/04/11 00:23:49;;;;;;;0.60;0.60;;;;;;;7.51;65.00;98220.56;29394;252;64009;-85
2024/04/11 00:24:21;;;;;;;0.50;0.50;;;;;;;7.54;65.10;98217.37;29395;202;63009;-87
2024/04/11 00:24:52;;;;;;;3.87;3.70;;;;;;;7.55;64.93;98220.91;29395;216;63010;-86
2024/04/11 00:25:24;;;;;;;0.50;0.50;;;;;;;7.57;64.96;98213.38;29395;259;63009;-87
2024/04/11 00:25:57;;;;;;;0.50;0.50;;;;;;;7.56;64.92;98211.75;29395;240;63005;-84
2024/04/11 00:26:34;;;;;;;0.50;0.50;;;;;;;7.53;64.93;98214.94;29395;203;63009;-88
2024/04/11 00:27:07;;;;;;;0.50;0.50;;;;;;;7.51;65.07;98209.78;29394;247;64009;-87
2024/04/11 00:27:39;;;;;;;0.50;0.50;;;;;;;7.50;65.11;98207.31;29395;216;63009;-87
2024/04/11 00:28:11;;;;;;;0.50;0.50;;;;;;;7.51;65.18;98214.34;29395;205;63004;-88
2024/04/11 00:28:42;;;;;;;0.50;0.50;;;;;;;7.51;65.06;98211.66;29395;337;63009;-87
2024/04/11 00:29:13;;;;;;;0.50;0.50;;;;;;;7.52;65.17;98219.50;29395;219;63004;-85
2024/04/11 00:29:44;;;;;;;0.50;0.50;;;;;;;7.53;65.37;98212.22;29394;206;64013;-86
2024/04/11 00:30:16;;;;;;;0.50;0.50;;;;;;;7.51;65.29;98214.34;29395;211;63001;-86
2024/04/11 00:30:48;;;;;;;0.60;0.60;;;;;;;7.51;65.33;98219.75;29395;209;63009;-86
2024/04/11 00:31:19;;;;;;;0.50;0.50;;;;;;;7.49;65.32;98216.47;29395;202;63005;-85
2024/04/11 00:31:51;;;;;;;0.57;0.57;;;;;;;7.48;65.46;98217.53;29394;212;64013;-85
2024/04/11 00:32:25;;;;;;;0.50;0.50;;;;;;;7.48;65.41;98221.03;29395;226;63005;-86
2024/04/11 00:33:37;;;;;;;0.50;0.50;;;;;;;7.46;65.69;98217.75;29395;293;63009;-87
2024/04/11 00:34:16;;;;;;;0.50;0.50;;;;;;;7.46;65.74;98211.53;29394;225;64009;-87
2024/04/11 00:34:47;;;;;;;0.60;0.60;;;;;;;7.45;66.04;98221.53;29395;228;63009;-87
2024/04/11 00:35:18;;;;;;;0.50;0.50;;;;;;;7.46;65.80;98223.16;29395;221;63004;-87
2024/04/11 00:35:50;;;;;;;0.50;0.50;;;;;;;7.48;65.94;98214.81;29394;213;64013;-88
2024/04/11 00:36:23;;;;;;;0.50;0.50;;;;;;;7.48;65.84;98214.81;29395;237;63004;-88
2024/04/11 00:36:55;;;;;;;0.60;0.60;;;;;;;7.46;65.87;98209.66;29395;395;63008;-86
2024/04/11 00:37:31;;;;;;;0.60;0.60;;;;;;;7.45;65.96;98216.13;29395;288;63004;-87
2024/04/11 00:38:03;;;;;;;0.60;0.60;;;;;;;7.44;66.13;98219.06;29395;326;63009;-85
2024/04/11 00:38:34;;;;;;;0.60;0.60;;;;;;;7.42;66.10;98221.19;29395;276;63005;-85
2024/04/11 00:39:06;;;;;;;0.50;0.50;;;;;;;7.42;66.19;98215.78;29395;217;63009;-86
2024/04/11 00:39:38;;;;;;;0.60;0.60;;;;;;;7.40;66.35;98216.84;29395;203;63005;-86
2024/04/11 00:40:09;;;;;;;0.50;0.50;;;;;;;7.40;66.14;98213.31;29395;310;63009;-87
2024/04/11 00:40:41;;;;;;;0.50;0.50;;;;;;;7.40;66.27;98218.72;29395;245;63008;-86
2024/04/11 00:41:12;;;;;;;0.50;0.50;;;;;;;7.39;66.30;98215.19;29394;197;64013;-87
2024/04/11 00:41:45;;;;;;;0.50;0.50;;;;;;;7.40;66.36;98219.53;29395;202;63005;-86
2024/04/11 00:42:17;;;;;;;0.50;0.50;;;;;;;7.42;66.21;98215.78;29395;210;63009;-87
2024/04/11 00:42:48;;;;;;;0.50;0.50;;;;;;;7.40;66.12;98211.44;29395;227;63004;-88
2024/04/11 00:43:20;;;;;;;0.50;0.50;;;;;;;7.41;66.28;98214.97;29395;216;63009;-86
2024/04/11 00:43:52;;;;;;;0.50;0.50;;;;;;;7.38;66.31;98208.16;29394;224;64009;-88
2024/04/11 00:44:24;;;;;;;0.60;0.60;;;;;;;7.38;66.50;98213.56;29395;213;63008;-86
2024/04/11 00:44:56;;;;;;;0.50;0.50;;;;;;;7.38;66.22;98205.47;29395;285;63004;-86
2024/04/11 00:45:28;;;;;;;0.50;0.50;;;;;;;7.39;66.31;98206.28;29395;282;63009;-86
2024/04/11 00:45:59;;;;;;;0.50;0.50;;;;;;;7.39;66.41;98204.41;29395;204;63012;-86
2024/04/11 00:46:31;;;;;;;0.50;0.50;;;;;;;7.39;66.28;98204.41;29395;231;63009;-87
2024/04/11 00:47:09;;;;;;;0.50;0.50;;;;;;;7.39;66.21;98207.09;29395;234;63005;-86
2024/04/11 00:47:40;;;;;;;0.50;0.50;;;;;;;7.38;66.48;98205.47;29394;295;64013;-86
2024/04/11 00:48:11;;;;;;;0.50;0.50;;;;;;;7.38;66.61;98205.47;29395;287;63005;-86
2024/04/11 00:48:43;;;;;;;0.50;0.50;;;;;;;7.40;66.59;98208.75;29395;202;63009;-88
2024/04/11 00:49:15;;;;;;;0.50;0.50;;;;;;;7.40;66.40;98208.75;29395;225;63005;-86
2024/04/11 00:49:48;;;;;;;0.50;0.50;;;;;;;7.44;66.59;98202.87;29395;235;63004;-86
2024/04/11 00:50:21;;;;;;;0.50;0.50;;;;;;;7.44;66.25;98208.25;29395;204;63004;-86
2024/04/11 00:50:54;;;;;;;0.50;0.50;;;;;;;7.45;66.14;98209.91;29395;220;63009;-85
2024/04/11 00:51:25;;;;;;;0.50;0.50;;;;;;;7.48;66.01;98201.31;29395;233;63004;-86
2024/04/11 00:51:58;;;;;;;0.50;0.50;;;;;;;7.48;65.99;98199.44;29395;251;63008;-86
2024/04/11 00:52:30;;;;;;;0.50;0.50;;;;;;;7.50;65.87;98196.50;29394;208;64008;-88
2024/04/11 00:53:03;;;;;;;0.50;0.50;;;;;;;7.50;65.66;98199.19;29395;299;63009;-86
2024/04/11 00:53:35;;;;;;;0.50;0.50;;;;;;;7.50;65.68;98197.31;29395;210;63005;-86
2024/04/11 00:54:07;;;;;;;0.50;0.50;;;;;;;7.50;65.78;98197.31;29395;221;63020;-86
2024/04/11 00:54:38;;;;;;;0.50;0.50;;;;;;;7.51;65.65;98193.56;29395;214;63005;-87
2024/04/11 00:55:12;;;;;;;0.50;0.50;;;;;;;7.49;65.84;98195.69;29395;217;63009;-87
2024/04/11 00:55:43;;;;;;;0.50;0.50;;;;;;;7.48;65.64;98196.75;29395;224;63005;-86
2024/04/11 00:56:15;;;;;;;0.50;0.50;;;;;;;7.48;65.71;98190.53;29395;218;63009;-87
2024/04/11 00:56:46;;;;;;;0.50;0.50;;;;;;;7.48;65.68;98195.91;29395;220;63005;-87
2024/04/11 00:57:19;;;;;;;0.50;0.50;;;;;;;7.48;65.60;98190.53;29394;369;64013;-86
2024/04/11 00:57:51;;;;;;;0.50;0.50;;;;;;;7.49;65.71;98194.87;29395;225;63004;-87
2024/04/11 00:58:24;;;;;;;0.50;0.50;;;;;;;7.51;65.68;98198.97;29395;208;63009;-87
2024/04/11 00:58:55;;;;;;;0.50;0.50;;;;;;;7.52;65.37;98197.09;29395;235;63004;-86
2024/04/11 00:59:27;;;;;;;0.60;0.60;;;;;;;7.55;65.49;98202.00;29395;220;63008;-86
2024/04/11 00:59:59;;;;;;;0.50;0.50;;;;;;;7.53;65.43;98191.44;29395;206;63004;-86
2024/04/11 01:00:30;;;;;;;0.50;0.50;;;;;;;7.54;65.34;98194.97;29395;224;63009;-87
2024/04/11 01:01:01;;;;;;;0.50;0.50;;;;;;;7.52;65.27;98197.91;29395;225;63005;-87
2024/04/11 01:01:32;;;;;;;0.50;0.50;;;;;;;7.53;65.23;98196.03;29394;206;64014;-87
2024/04/11 01:02:13;;;;;;;0.50;0.50;;;;;;;7.52;65.24;98197.09;29395;212;63005;-87
2024/04/11 01:02:44;;;;;;;0.52;0.52;;;;;;;7.51;65.24;98190.03;29438;199;64013;-86
2024/04/11 01:03:16;;;;;;;0.50;0.50;;;;;;;7.49;65.25;98186.75;29371;256;64009;-87
2024/04/11 01:03:47;;;;;;;0.50;0.50;;;;;;;7.47;65.48;98196.97;29395;221;63009;-87
2024/04/11 01:04:19;;;;;;;0.50;0.50;;;;;;;7.44;65.36;98192.88;29395;291;63005;-87
2024/04/11 01:04:51;;;;;;;0.50;0.50;;;;;;;7.44;65.51;98197.47;29394;221;64013;-87
2024/04/11 01:05:22;;;;;;;0.50;0.50;;;;;;;7.42;65.60;98191.47;29395;251;63004;-88
2024/04/11 01:05:53;;;;;;;0.50;0.50;;;;;;;7.41;65.82;98198.75;29395;219;63009;-87
2024/04/11 01:06:25;;;;;;;0.50;0.50;;;;;;;7.40;65.76;98197.13;29395;277;63004;-87
2024/04/11 01:07:09;;;;;;;0.55;0.55;;;;;;;7.39;65.91;98198.19;29395;238;63008;-86
2024/04/11 01:07:49;;;;;;;0.50;0.50;;;;;;;7.36;65.88;98202.19;29395;279;63004;-87
2024/04/11 01:08:26;;;;;;;0.60;0.60;;;;;;;7.36;65.95;98202.19;29417;202;63009;-86
2024/04/11 01:08:59;;;;;;;0.60;0.60;;;;;;;7.37;65.93;98203.00;29395;204;63005;-87
2024/04/11 01:09:33;;;;;;;0.50;0.50;;;;;;;7.36;65.90;98199.47;29395;223;63009;-87
2024/04/11 01:10:17;;;;;;;0.50;0.50;;;;;;;7.36;65.77;98194.06;29394;293;64009;-87
2024/04/11 01:10:48;;;;;;;0.50;0.50;;;;;;;7.36;65.87;98202.19;29395;224;63013;-86
2024/04/11 01:11:20;;;;;;;0.50;0.50;;;;;;;7.36;65.88;98193.25;29395;224;63005;-86
2024/04/11 01:11:52;;;;;;;0.50;0.50;;;;;;;7.36;65.91;98191.38;29395;241;63009;-87
2024/04/11 01:12:23;;;;;;;0.50;0.50;;;;;;;7.34;65.92;98196.19;29395;287;63004;-86
2024/04/11 01:12:54;;;;;;;0.50;0.50;;;;;;;7.34;65.99;98198.06;29394;214;64013;-88
2024/04/11 01:13:26;;;;;;;0.50;0.50;;;;;;;7.32;66.27;98195.63;29394;215;64009;-87
2024/04/11 01:13:57;;;;;;;0.50;0.50;;;;;;;7.31;66.34;98193.97;29395;339;63009;-88
2024/04/11 01:14:31;;;;;;;0.50;0.50;;;;;;;7.28;66.28;98194.44;29395;205;63004;-86
2024/04/11 01:15:03;;;;;;;0.50;0.50;;;;;;;7.26;66.53;98199.28;29395;202;63008;-87
2024/04/11 01:15:37;;;;;;;0.50;0.50;;;;;;;7.23;66.57;98198.94;29395;223;63005;-87
2024/04/11 01:16:09;;;;;;;0.60;0.60;;;;;;;7.21;66.83;98203.78;29395;218;63009;-88
2024/04/11 01:16:40;;;;;;;0.55;0.55;;;;;;;7.17;68.07;98211.53;29395;197;63005;-87
2024/04/11 01:17:15;;;;;;;0.50;0.50;;;;;;;7.13;68.55;98217.63;29395;252;63009;-86
2024/04/11 01:17:48;;;;;;;0.50;0.50;;;;;;;7.08;69.13;98215.66;29394;212;64009;-87
2024/04/11 01:18:20;;;;;;;0.50;0.50;;;;;;;7.05;69.91;98221.50;29395;197;63009;-87
2024/04/11 01:18:56;;;;;;;0.60;0.60;;;;;;;7.00;70.31;98226.81;29395;228;63005;-88
2024/04/11 01:19:27;;;;;;;0.50;0.50;;;;;;;6.95;70.15;98226.69;29395;197;63016;-87
2024/04/11 01:19:59;;;;;;;0.50;0.50;;;;;;;6.91;70.75;98226.38;29395;314;63004;-87
2024/04/11 01:20:31;;;;;;;0.50;0.50;;;;;;;6.87;71.50;98230.59;29395;233;63009;-86
2024/04/11 01:21:04;;;;;;;0.50;0.50;;;;;;;6.72;72.42;98214.06;29395;202;63004;-87
2024/04/11 01:21:36;;;;;;;0.50;0.50;;;;;;;6.80;71.60;98235.28;29395;293;63009;-86
2024/04/11 01:22:09;;;;;;;0.50;0.50;;;;;;;6.82;71.06;98237.75;29395;233;63004;-87
2024/04/11 01:22:41;;;;;;;0.50;0.50;;;;;;;6.86;70.94;98225.44;29395;235;63008;-86
2024/04/11 01:23:13;;;;;;;0.50;0.50;;;;;;;6.90;70.70;98234.69;29394;233;64009;-87
2024/04/11 01:23:44;;;;;;;0.60;0.60;;;;;;;6.91;70.58;98237.16;29395;222;63009;-87
2024/04/11 01:24:16;;;;;;;0.57;0.57;;;;;;;6.90;70.33;98232.81;29395;200;63005;-86
2024/04/11 01:24:47;;;;;;;0.60;0.60;;;;;;;6.94;70.46;98241.22;29395;237;63009;-86
2024/04/11 01:25:20;;;;;;;0.60;0.60;;;;;;;6.95;70.41;98232.09;29395;265;63005;-88
2024/04/11 01:25:51;;;;;;;0.50;0.50;;;;;;;6.94;70.41;98230.44;29395;201;63009;-87
2024/04/11 01:26:24;;;;;;;0.50;0.50;;;;;;;6.94;70.58;98235.84;29395;202;63004;-86
2024/04/11 01:27:17;;;;;;;0.55;0.55;;;;;;;6.92;70.63;98232.59;29417;233;63009;-87
2024/04/11 01:27:48;;;;;;;0.50;0.50;;;;;;;6.88;70.73;98236.81;29395;196;63004;-87
2024/04/11 01:28:24;;;;;;;0.60;0.60;;;;;;;6.84;71.05;98227.53;29394;208;64013;-88
2024/04/11 01:28:55;;;;;;;0.60;0.60;;;;;;;6.82;71.12;98230.47;29395;214;63004;-87
2024/04/11 01:29:26;;;;;;;0.50;0.50;;;;;;;6.82;71.08;98232.34;29395;224;63018;-88
2024/04/11 01:29:57;;;;;;;0.50;0.50;;;;;;;6.80;71.18;98229.06;29395;213;63005;-88
2024/04/11 01:30:29;;;;;;;0.50;0.50;;;;;;;6.77;71.07;98229.53;29395;230;63009;-87
2024/04/11 01:31:00;;;;;;;0.60;0.60;;;;;;;6.78;70.85;98223.09;29395;317;63005;-88
2024/04/11 01:31:32;;;;;;;0.60;0.60;;;;;;;6.78;70.78;98232.00;29395;308;63016;-86
2024/04/11 01:32:04;;;;;;;0.50;0.50;;;;;;;6.76;70.59;98233.28;29395;207;63005;-86
2024/04/11 01:32:35;;;;;;;0.60;0.60;;;;;;;6.73;70.86;98240.78;29395;390;63009;-86
2024/04/11 01:33:09;;;;;;;0.52;0.52;;;;;;;6.70;70.81;98230.47;29395;204;63005;-86
2024/04/11 01:33:41;;;;;;;0.55;0.55;;;;;;;6.68;70.79;98242.53;29394;206;64013;-86
2024/04/11 01:34:12;;;;;;;0.50;0.50;;;;;;;6.68;71.01;98240.69;29395;208;63004;-86
2024/04/11 01:34:44;;;;;;;0.50;0.50;;;;;;;6.66;71.01;98239.25;29395;207;63009;-85
2024/04/11 01:35:16;;;;;;;0.50;0.50;;;;;;;6.65;70.89;98233.06;29395;217;63004;-86
2024/04/11 01:35:47;;;;;;;0.50;0.50;;;;;;;6.65;71.02;98237.62;29395;305;63009;-87
2024/04/11 01:36:18;;;;;;;0.50;0.50;;;;;;;6.65;71.03;98238.44;29395;239;63004;-88
2024/04/11 01:36:49;;;;;;;0.50;0.50;;;;;;;6.66;71.21;98234.69;29395;371;63008;-86
2024/04/11 01:37:21;;;;;;;0.73;0.73;;;;;;;6.66;71.03;98239.25;29395;227;63005;-87
2024/04/11 01:37:52;;;;;;;0.50;0.50;;;;;;;6.67;71.19;98236.34;29395;235;63009;-87
2024/04/11 01:38:24;;;;;;;0.50;0.50;;;;;;;6.66;71.14;98237.38;29395;240;63005;-86
2024/04/11 01:38:55;;;;;;;0.50;0.50;;;;;;;6.67;71.17;98235.50;29394;223;64013;-86
2024/04/11 01:39:27;;;;;;;0.50;0.50;;;;;;;6.69;70.91;98236.91;29395;202;63005;-86
2024/04/11 01:39:58;;;;;;;0.50;0.50;;;;;;;6.69;70.95;98236.91;29395;203;63009;-87
2024/04/11 01:40:29;;;;;;;0.50;0.50;;;;;;;6.69;70.97;98239.63;29395;202;63005;-86
2024/04/11 01:41:01;;;;;;;0.50;0.50;;;;;;;6.66;71.23;98240.09;29395;216;63009;-88
2024/04/11 01:41:32;;;;;;;0.50;0.50;;;;;;;6.56;72.16;98247.97;29395;215;63004;-86
2024/04/11 01:42:04;;;;;;;0.50;0.50;;;;;;;6.45;72.85;98253.34;29395;221;63016;-86
2024/04/11 01:42:35;;;;;;;0.50;0.50;;;;;;;6.35;73.50;98248.50;29394;215;64009;-88
2024/04/11 01:43:09;;;;;;;0.50;0.50;;;;;;;6.30;73.22;98251.91;29395;251;63009;-88
2024/04/11 01:43:40;;;;;;;0.60;0.60;;;;;;;6.25;73.48;98250.94;29395;296;63018;-87
2024/04/11 01:44:12;;;;;;;0.60;0.60;;;;;;;6.23;73.84;98256.59;29394;202;64013;-88
2024/04/11 01:44:43;;;;;;;0.60;0.60;;;;;;;6.22;73.51;98256.84;29395;323;63005;-87
2024/04/11 01:45:15;;;;;;;0.50;0.50;;;;;;;6.20;73.97;98245.47;29395;212;63009;-87
2024/04/11 01:45:46;;;;;;;0.50;0.50;;;;;;;6.19;74.60;98260.00;29395;232;63005;-85
2024/04/11 01:46:18;;;;;;;0.50;0.50;;;;;;;6.17;74.09;98252.12;29395;297;63009;-88
2024/04/11 01:46:52;;;;;;;0.98;0.98;;;;;;;6.17;73.87;98245.91;29395;203;63005;-87
2024/04/11 01:47:24;;;;;;;0.50;0.50;;;;;;;6.18;73.94;98242.16;29395;198;63009;-86
2024/04/11 01:47:56;;;;;;;0.50;0.50;;;;;;;6.19;74.00;98249.22;29395;210;63007;-88
2024/04/11 01:48:27;;;;;;;0.52;0.52;;;;;;;6.19;73.80;98239.25;29395;202;63009;-86
2024/04/11 01:49:02;;;;;;;0.60;0.60;;;;;;;6.21;73.71;98239.00;29395;267;63004;-86
2024/04/11 01:49:34;;;;;;;0.60;0.60;;;;;;;6.23;73.64;98251.22;29394;227;64013;-87
2024/04/11 01:50:06;;;;;;;0.50;0.50;;;;;;;6.26;73.69;98241.81;29395;218;63004;-87
2024/04/11 01:50:39;;;;;;;0.50;0.50;;;;;;;6.28;73.46;98248.63;29395;205;63009;-87
2024/04/11 01:51:12;;;;;;;0.60;0.60;;;;;;;6.30;73.26;98241.13;29395;228;63004;-88
2024/04/11 01:51:43;;;;;;;0.60;0.60;;;;;;;6.31;72.91;98233.84;29395;196;63008;-87
2024/04/11 01:52:14;;;;;;;0.60;0.60;;;;;;;6.32;72.96;98243.59;29395;198;63005;-87
2024/04/11 01:52:45;;;;;;;0.50;0.50;;;;;;;6.32;73.00;98241.72;29395;223;63009;-87
2024/04/11 01:53:17;;;;;;;0.52;0.52;;;;;;;6.33;72.87;98240.66;29395;241;63005;-86
2024/04/11 01:53:48;;;;;;;0.60;0.60;;;;;;;6.34;72.88;98245.00;29395;315;63020;-87
2024/04/11 01:54:21;;;;;;;0.50;0.50;;;;;;;6.33;72.70;98239.84;29395;199;63005;-86
2024/04/11 01:54:52;;;;;;;0.50;0.50;;;;;;;6.33;72.71;98240.66;29394;204;64013;-87
2024/04/11 01:55:25;;;;;;;0.50;0.50;;;;;;;6.33;72.89;98231.75;29395;198;63014;-88
2024/04/11 01:55:56;;;;;;;0.60;0.60;;;;;;;6.34;72.91;98233.41;29395;210;63009;-88
2024/04/11 01:56:28;;;;;;;0.50;0.50;;;;;;;6.36;72.85;98233.97;29395;249;63004;-87
2024/04/11 01:57:00;;;;;;;0.60;0.60;;;;;;;6.36;72.81;98225.91;29395;205;63009;-86
2024/04/11 01:57:31;;;;;;;0.50;0.50;;;;;;;6.38;72.70;98232.69;29395;327;63004;-87
2024/04/11 01:58:04;;;;;;;0.50;0.50;;;;;;;6.39;72.58;98228.13;29394;211;64013;-88
2024/04/11 01:58:36;;;;;;;0.57;0.57;;;;;;;6.42;72.62;98232.22;29395;366;63004;-87
2024/04/11 01:59:08;;;;;;;0.50;0.50;;;;;;;6.41;72.58;98227.91;29394;325;64013;-88
2024/04/11 01:59:41;;;;;;;0.57;0.57;;;;;;;6.41;72.58;98230.59;29395;215;63004;-87
2024/04/11 02:00:13;;;;;;;0.50;0.50;;;;;;;6.38;72.51;98227.31;29395;224;63009;-88
2024/04/11 02:00:44;;;;;;;0.50;0.50;;;;;;;6.37;72.31;98224.84;29395;223;63005;-86
2024/04/11 02:01:19;;;;;;;0.50;0.50;;;;;;;6.36;72.41;98224.03;29395;245;63009;-87
2024/04/11 02:01:50;;;;;;;0.50;0.50;;;;;;;6.36;72.57;98223.19;29395;208;63005;-89
2024/04/11 02:02:22;;;;;;;0.60;0.60;;;;;;;6.34;72.49;98225.31;29395;213;63009;-88
2024/04/11 02:02:54;;;;;;;0.50;0.50;;;;;;;6.34;72.57;98219.91;29395;251;63005;-87
2024/04/11 02:03:30;;;;;;;0.50;0.50;;;;;;;6.35;72.75;98221.56;29395;247;63009;-87
2024/04/11 02:04:11;;;;;;;0.60;0.60;;;;;;;6.28;72.83;98213.56;29394;236;64009;-88
2024/04/11 02:04:45;;;;;;;0.60;0.60;;;;;;;6.38;73.01;98223.78;29395;255;63009;-88
2024/04/11 02:05:20;;;;;;;0.60;0.60;;;;;;;6.37;73.04;98222.16;29395;264;63004;-88
2024/04/11 02:05:52;;;;;;;0.50;0.50;;;;;;;6.37;73.34;98225.66;29395;236;63009;-88
2024/04/11 02:06:23;;;;;;;0.60;0.60;;;;;;;6.37;73.37;98220.28;29395;269;63004;-89
2024/04/11 02:06:54;;;;;;;0.50;0.50;;;;;;;6.40;73.51;98224.38;29395;209;63008;-89
2024/04/11 02:07:26;;;;;;;0.60;0.60;;;;;;;6.41;73.56;98219.81;29395;196;63005;-88
2024/04/11 02:08:08;;;;;;;0.50;0.50;;;;;;;6.41;73.70;98231.41;29395;202;63009;-88
2024/04/11 02:08:46;;;;;;;0.60;0.60;;;;;;;6.44;73.57;98225.56;29395;276;63005;-89
2024/04/11 02:09:22;;;;;;;0.50;0.50;;;;;;;6.44;73.30;98225.56;29394;211;64013;-87
2024/04/11 02:10:00;;;;;;;0.60;0.60;;;;;;;6.47;73.11;98218.88;29395;204;63005;-88
2024/04/11 02:10:31;;;;;;;0.60;0.60;;;;;;;6.39;73.35;98211.94;29395;221;63009;-88
2024/04/11 02:11:11;;;;;;;0.50;0.50;;;;;;;6.47;73.36;98227.78;29395;252;63005;-89
2024/04/11 02:11:53;;;;;;;0.60;0.60;;;;;;;6.47;73.59;98225.09;29395;218;63009;-88
2024/04/11 02:12:30;;;;;;;0.60;0.60;;;;;;;6.45;73.59;98221.81;29417;204;63004;-88
2024/04/11 02:13:02;;;;;;;0.50;0.50;;;;;;;6.45;73.90;98227.19;29395;256;63009;-88
2024/04/11 02:13:33;;;;;;;0.50;0.50;;;;;;;6.45;73.88;98221.81;29395;210;64009;-87
2024/04/11 02:14:04;;;;;;;0.50;0.50;;;;;;;6.46;74.05;98231.53;29396;203;63008;-88
2024/04/11 02:14:38;;;;;;;0.50;0.50;;;;;;;6.46;73.74;98223.44;29396;196;63004;-89
2024/04/11 02:15:10;;;;;;;0.50;0.50;;;;;;;6.46;73.73;98223.44;29396;237;63009;-87
2024/04/11 02:15:41;;;;;;;0.60;0.60;;;;;;;6.46;73.38;98218.06;29396;208;63011;-86
2024/04/11 02:16:13;;;;;;;0.60;0.60;;;;;;;6.46;73.35;98217.22;29396;311;63009;-86
2024/04/11 02:16:45;;;;;;;0.50;0.50;;;;;;;6.45;73.32;98216.41;29396;227;63005;-87
2024/04/11 02:17:19;;;;;;;0.50;0.50;;;;;;;6.44;73.31;98214.78;29396;211;63009;-89
2024/04/11 02:17:51;;;;;;;0.50;0.50;;;;;;;6.43;73.08;98218.53;29396;223;63005;-87
2024/04/11 02:18:23;;;;;;;0.50;0.50;;;;;;;6.44;73.06;98222.84;29395;292;64013;-87
2024/04/11 02:18:55;;;;;;;0.50;0.50;;;;;;;6.44;73.18;98217.47;29396;249;63004;-88
2024/04/11 02:19:26;;;;;;;0.50;0.50;;;;;;;6.43;73.05;98223.09;29396;285;63009;-87
2024/04/11 02:19:59;;;;;;;0.50;0.50;;;;;;;6.40;73.18;98218.97;29396;199;63004;-89
2024/04/11 02:20:32;;;;;;;0.60;0.60;;;;;;;6.35;74.47;98221.56;29396;205;63009;-87
2024/04/11 02:21:06;;;;;;;0.60;0.60;;;;;;;6.23;75.22;98229.66;29396;239;63004;-87
2024/04/11 02:21:40;;;;;;;0.50;0.50;;;;;;;6.11;76.02;98236.06;29396;227;63021;-88
2024/04/11 02:22:13;;;;;;;0.50;0.50;;;;;;;5.99;76.99;98236.03;29396;244;63004;-88
2024/04/11 02:22:44;;;;;;;0.50;0.50;;;;;;;5.95;77.95;98256.41;29396;215;63009;-87
2024/04/11 02:23:16;;;;;;;0.50;0.50;;;;;;;5.91;77.86;98247.13;29396;248;63005;-86
2024/04/11 02:23:47;;;;;;;0.50;0.50;;;;;;;5.89;77.82;98250.03;29395;247;64013;-86
2024/04/11 02:24:19;;;;;;;0.50;0.50;;;;;;;5.87;77.75;98244.06;29396;227;63005;-87
2024/04/11 02:24:50;;;;;;;0.50;0.50;;;;;;;5.87;77.13;98238.69;29396;199;63009;-86
2024/04/11 02:25:21;;;;;;;1.00;1.00;;;;;;;5.86;76.61;98239.72;29396;212;63011;-88
2024/04/11 02:25:53;;;;;;;0.50;0.50;;;;;;;5.87;76.51;98235.97;29396;202;63009;-86
2024/04/11 02:26:25;;;;;;;0.60;0.60;;;;;;;5.88;76.53;98232.25;29396;293;63004;-85
2024/04/11 02:26:56;;;;;;;0.50;0.50;;;;;;;5.88;76.39;98236.81;29396;197;63009;-86
2024/04/11 02:27:29;;;;;;;0.50;0.50;;;;;;;5.88;76.03;98231.41;29396;254;63004;-87
2024/04/11 02:28:01;;;;;;;0.52;0.52;;;;;;;5.86;76.42;98239.72;29396;206;63017;-87
2024/04/11 02:28:32;;;;;;;0.52;0.52;;;;;;;5.85;76.54;98232.69;29396;224;63004;-85
2024/04/11 02:29:05;;;;;;;0.60;0.60;;;;;;;5.83;76.88;98234.78;29395;197;64013;-86
2024/04/11 02:29:36;;;;;;;0.50;0.50;;;;;;;5.82;76.97;98238.53;29396;259;63005;-87
2024/04/11 02:30:09;;;;;;;0.50;0.50;;;;;;;5.81;77.30;98242.28;29395;227;64014;-87
2024/04/11 02:30:40;;;;;;;0.60;0.60;;;;;;;5.80;76.79;98237.94;29396;292;63005;-87
2024/04/11 02:31:11;;;;;;;0.50;0.50;;;;;;;5.81;77.11;98244.16;29396;251;63009;-86
2024/04/11 02:31:43;;;;;;;0.50;0.50;;;;;;;5.80;76.93;98237.12;29396;222;63005;-86
2024/04/11 02:32:14;;;;;;;0.60;0.60;;;;;;;5.81;77.05;98241.47;29396;229;63009;-86
2024/04/11 02:32:45;;;;;;;0.50;0.50;;;;;;;5.79;77.17;98236.31;29396;196;63013;-88
2024/04/11 02:33:16;;;;;;;0.52;0.52;;;;;;;5.79;77.49;98235.47;29396;243;63009;-87
2024/04/11 02:33:48;;;;;;;0.60;0.60;;;;;;;5.78;77.16;98240.03;29396;223;63004;-88
2024/04/11 02:34:19;;;;;;;0.60;0.60;;;;;;;5.77;76.93;98241.09;29396;212;63009;-88
2024/04/11 02:34:51;;;;;;;0.52;0.52;;;;;;;5.77;76.86;98241.09;29396;217;63004;-86
2024/04/11 02:35:22;;;;;;;0.50;0.50;;;;;;;5.78;77.12;98242.75;29395;214;64013;-89
2024/04/11 02:35:54;;;;;;;0.60;0.60;;;;;;;5.80;77.20;98251.41;29396;209;63004;-87
2024/04/11 02:36:31;;;;;;;0.50;0.50;;;;;;;5.82;77.36;98243.09;29395;273;64008;-88
2024/04/11 02:37:04;;;;;;;0.57;0.57;;;;;;;5.84;77.17;98247.22;29395;344;64009;-87